Time;durP1;ratioP1;P1;durP2;ratioP2;P2;SDS_P1;SDS_P2;PMS_P1;PMS_P2;Temp;Humidity;BMP_temperature;BMP_pressure;BME280_temperature;BME280_humidity;BME280_pressure;Samples;Min_cycle;Max_cycle;Signal;HPM_P1;HPM_P2
2023/11/05 00:00:26;;;;;;;0.10;0.10;;;;;;;8.16;100.00;92823.56;1025347;28;20524;-73
2023/11/05 00:00:57;;;;;;;0.20;0.20;;;;;;;8.13;100.00;92818.97;1030134;28;20045;-77
2023/11/05 00:01:27;;;;;;;0.10;0.10;;;;;;;8.09;100.00;92812.88;1028579;28;20062;-73
2023/11/05 00:01:58;;;;;;;0.00;0.00;;;;;;;8.04;100.00;92813.81;1030298;28;20407;-75
2023/11/05 00:02:28;;;;;;;0.00;0.00;;;;;;;8.00;100.00;92799.88;1034189;28;20131;-74
2023/11/05 00:02:59;;;;;;;0.00;0.00;;;;;;;8.04;100.00;92805.22;1034413;28;20676;-73
2023/11/05 00:03:30;;;;;;;0.00;0.00;;;;;;;8.10;100.00;92819.63;1038952;28;20025;-75
2023/11/05 00:04:00;;;;;;;0.00;0.00;;;;;;;8.09;100.00;92812.88;1038467;28;20266;-74
2023/11/05 00:04:31;;;;;;;0.22;0.20;;;;;;;8.09;100.00;92810.25;1034024;28;20343;-73
2023/11/05 00:05:01;;;;;;;0.00;0.00;;;;;;;8.09;100.00;92806.91;1025341;28;20022;-74
2023/11/05 00:05:32;;;;;;;0.10;0.10;;;;;;;8.06;100.00;92808.28;1025687;28;20487;-73
2023/11/05 00:06:02;;;;;;;0.00;0.00;;;;;;;8.06;100.00;92808.28;1030004;28;20030;-74
2023/11/05 00:06:34;;;;;;;0.00;0.00;;;;;;;8.08;100.00;92800.91;1034902;28;20029;-74
2023/11/05 00:07:05;;;;;;;0.13;0.13;;;;;;;8.01;100.00;92790.97;1028640;28;20023;-76
2023/11/05 00:07:35;;;;;;;0.00;0.00;;;;;;;8.07;100.00;92796.75;1026192;28;20262;-74
2023/11/05 00:08:06;;;;;;;0.00;0.00;;;;;;;8.10;100.00;92798.72;1026043;28;20290;-75
2023/11/05 00:08:37;;;;;;;0.00;0.00;;;;;;;8.09;100.00;92796.44;1030084;28;20031;-75
2023/11/05 00:09:08;;;;;;;0.15;0.15;;;;;;;8.07;100.00;92794.13;1022529;28;20037;-74
2023/11/05 00:09:38;;;;;;;0.10;0.10;;;;;;;8.06;100.00;92789.25;1022191;29;20529;-74
2023/11/05 00:10:09;;;;;;;0.00;0.00;;;;;;;8.00;100.00;92786.06;1027346;28;20268;-72
2023/11/05 00:10:40;;;;;;;0.00;0.00;;;;;;;8.05;100.00;92785.88;1030511;28;20027;-74
2023/11/05 00:11:11;;;;;;;0.00;0.00;;;;;;;8.03;100.00;92777.59;1034355;28;20744;-73
2023/11/05 00:11:41;;;;;;;0.00;0.00;;;;;;;8.09;100.00;92776.31;1032745;28;20017;-75
2023/11/05 00:12:12;;;;;;;0.00;0.00;;;;;;;8.03;100.00;92773.13;1030096;28;20429;-73
2023/11/05 00:12:42;;;;;;;0.00;0.00;;;;;;;8.10;100.00;92788.28;1026235;28;20113;-73
2023/11/05 00:13:12;;;;;;;0.00;0.00;;;;;;;8.08;100.00;92785.25;1026411;28;20019;-73
2023/11/05 00:13:43;;;;;;;0.00;0.00;;;;;;;8.08;100.00;92790.47;1030242;28;20610;-73
2023/11/05 00:14:13;;;;;;;0.00;0.00;;;;;;;8.04;100.00;92779.09;1030529;28;20130;-73
2023/11/05 00:14:44;;;;;;;0.00;0.00;;;;;;;8.08;100.00;92782.63;1030569;28;20022;-73
2023/11/05 00:15:15;;;;;;;0.10;0.10;;;;;;;8.06;100.00;92782.19;1034387;28;20091;-74
2023/11/05 00:15:45;;;;;;;0.20;0.20;;;;;;;8.01;100.00;92784.97;1034724;28;20449;-76
2023/11/05 00:16:16;;;;;;;0.00;0.00;;;;;;;8.02;100.00;92786.50;1030552;28;20296;-74
2023/11/05 00:16:46;;;;;;;0.00;0.00;;;;;;;8.02;100.00;92789.13;1038525;28;20088;-72
2023/11/05 00:17:17;;;;;;;0.00;0.00;;;;;;;7.98;100.00;92786.38;1038527;28;20271;-74
2023/11/05 00:17:47;;;;;;;0.00;0.00;;;;;;;7.99;100.00;92787.16;1034519;28;20194;-73
2023/11/05 00:18:18;;;;;;;0.10;0.10;;;;;;;7.97;100.00;92779.63;1038679;28;20021;-74
2023/11/05 00:18:48;;;;;;;0.00;0.00;;;;;;;7.98;100.00;92785.59;1030307;28;20027;-72
2023/11/05 00:19:18;;;;;;;0.00;0.00;;;;;;;7.97;100.00;92782.22;1034641;28;20556;-74
2023/11/05 00:19:49;;;;;;;0.00;0.00;;;;;;;7.93;100.00;92770.91;1030191;28;20022;-73
2023/11/05 00:20:19;;;;;;;0.00;0.00;;;;;;;7.95;100.00;92781.03;1028276;28;20087;-73
2023/11/05 00:20:50;;;;;;;1.90;0.17;;;;;;;7.88;100.00;92771.09;1034291;28;20017;-74
2023/11/05 00:21:20;;;;;;;0.00;0.00;;;;;;;7.95;100.00;92783.66;1030493;28;20093;-73
2023/11/05 00:21:51;;;;;;;0.30;0.30;;;;;;;7.95;100.00;92781.81;1026174;28;20019;-73
2023/11/05 00:22:21;;;;;;;0.00;0.00;;;;;;;7.95;100.00;92786.25;1022723;28;20086;-73
2023/11/05 00:22:52;;;;;;;0.00;0.00;;;;;;;7.85;100.00;92771.75;1026334;28;20026;-73
2023/11/05 00:23:23;;;;;;;0.15;0.15;;;;;;;7.89;100.00;92772.63;1030510;28;20026;-73
2023/11/05 00:23:53;;;;;;;0.00;0.00;;;;;;;7.88;100.00;92773.72;1026238;28;20019;-74
2023/11/05 00:24:24;;;;;;;0.80;0.75;;;;;;;7.91;100.00;92769.69;1026931;28;20262;-77
2023/11/05 00:24:54;;;;;;;0.00;0.00;;;;;;;7.87;100.00;92761.72;1030377;28;20105;-73
2023/11/05 00:25:25;;;;;;;0.00;0.00;;;;;;;7.90;100.00;92753.25;1027044;28;20019;-72
2023/11/05 00:25:55;;;;;;;0.00;0.00;;;;;;;7.89;100.00;92761.44;1030535;28;20635;-75
2023/11/05 00:26:26;;;;;;;0.00;0.00;;;;;;;7.92;100.00;92769.38;1031330;28;20023;-73
2023/11/05 00:26:56;;;;;;;0.40;0.40;;;;;;;7.95;100.00;92770.59;1034139;28;20113;-74
2023/11/05 00:27:27;;;;;;;0.00;0.00;;;;;;;7.92;100.00;92764.16;1030390;28;20094;-74
2023/11/05 00:27:57;;;;;;;0.00;0.00;;;;;;;7.96;100.00;92777.34;1026382;28;20034;-74
2023/11/05 00:28:28;;;;;;;0.00;0.00;;;;;;;7.90;100.00;92761.09;1034286;28;20623;-73
2023/11/05 00:28:58;;;;;;;0.00;0.00;;;;;;;7.94;100.00;92774.28;1030196;28;20022;-74
2023/11/05 00:29:29;;;;;;;0.05;0.05;;;;;;;7.86;100.00;92767.28;1030349;28;20041;-77
2023/11/05 00:29:59;;;;;;;0.00;0.00;;;;;;;7.93;100.00;92773.50;1030495;28;20033;-74
2023/11/05 00:30:30;;;;;;;0.00;0.00;;;;;;;7.95;100.00;92775.81;1031290;28;20022;-73
2023/11/05 00:31:00;;;;;;;0.00;0.00;;;;;;;7.90;100.00;92768.91;1026403;28;20513;-72
2023/11/05 00:31:31;;;;;;;0.00;0.00;;;;;;;7.95;100.00;92770.59;1027924;28;20023;-73
2023/11/05 00:32:01;;;;;;;0.00;0.00;;;;;;;7.93;100.00;92768.28;1027177;28;20487;-74
2023/11/05 00:32:32;;;;;;;0.00;0.00;;;;;;;7.91;100.00;92769.69;1034595;28;20041;-74
2023/11/05 00:33:02;;;;;;;0.00;0.00;;;;;;;7.89;100.00;92771.88;1034313;28;20560;-74
2023/11/05 00:33:32;;;;;;;0.00;0.00;;;;;;;7.91;100.00;92772.28;1026382;28;20030;-74
2023/11/05 00:34:03;;;;;;;0.00;0.00;;;;;;;7.93;100.00;92778.72;1033536;28;20026;-73
2023/11/05 00:34:33;;;;;;;0.00;0.00;;;;;;;7.93;100.00;92772.75;1030305;28;20019;-73
2023/11/05 00:35:04;;;;;;;0.00;0.00;;;;;;;7.95;100.00;92773.97;1033885;28;20018;-74
2023/11/05 00:35:35;;;;;;;0.00;0.00;;;;;;;7.95;100.00;92776.56;1034151;28;20029;-72
2023/11/05 00:36:08;;;;;;;0.00;0.00;;;;;;;7.94;100.00;92775.03;1034411;28;20727;-72
2023/11/05 00:36:38;;;;;;;0.00;0.00;;;;;;;7.92;100.00;92761.56;1030309;28;20018;-74
2023/11/05 00:37:10;;;;;;;0.00;0.00;;;;;;;7.95;100.00;92760.16;1031244;28;20753;-75
2023/11/05 00:37:41;;;;;;;0.00;0.00;;;;;;;7.90;100.00;92752.50;1038686;28;20029;-73
2023/11/05 00:38:12;;;;;;;0.00;0.00;;;;;;;7.95;100.00;92757.53;1030750;28;20264;-72
2023/11/05 00:38:42;;;;;;;0.00;0.00;;;;;;;7.94;100.00;92748.16;1034702;28;20748;-73
2023/11/05 00:39:12;;;;;;;0.00;0.00;;;;;;;7.95;100.00;92755.69;1026137;28;20250;-73
2023/11/05 00:39:43;;;;;;;0.00;0.00;;;;;;;7.96;100.00;92759.81;1030720;28;20022;-72
2023/11/05 00:40:14;;;;;;;0.00;0.00;;;;;;;7.87;100.00;92743.44;1034372;28;20862;-73
2023/11/05 00:40:44;;;;;;;0.00;0.00;;;;;;;8.00;100.00;92754.72;1034099;28;20021;-73
2023/11/05 00:41:14;;;;;;;0.00;0.00;;;;;;;7.97;100.00;92758.72;1042542;28;20520;-73
2023/11/05 00:41:45;;;;;;;0.85;0.35;;;;;;;7.96;100.00;92751.22;1038417;28;20021;-72
2023/11/05 00:42:18;;;;;;;0.00;0.00;;;;;;;7.97;100.00;92755.34;1034268;28;20014;-73
2023/11/05 00:42:49;;;;;;;0.00;0.00;;;;;;;7.93;100.00;92754.47;1030518;28;20429;-74
2023/11/05 00:43:19;;;;;;;0.00;0.00;;;;;;;7.92;100.00;92755.56;1027050;28;20262;-74
2023/11/05 00:43:50;;;;;;;0.00;0.00;;;;;;;7.86;100.00;92749.00;1031430;28;20549;-74
2023/11/05 00:44:20;;;;;;;0.00;0.00;;;;;;;7.95;100.00;92765.38;1034471;28;20367;-73
2023/11/05 00:44:51;;;;;;;0.00;0.00;;;;;;;7.93;100.00;92764.91;1031889;28;20022;-74
2023/11/05 00:45:21;;;;;;;0.00;0.00;;;;;;;7.89;100.00;92771.88;1030706;28;20015;-75
2023/11/05 00:45:52;;;;;;;0.00;0.00;;;;;;;7.88;100.00;92771.09;1034347;28;20741;-73
2023/11/05 00:46:22;;;;;;;0.00;0.00;;;;;;;7.88;100.00;92763.28;1034958;28;20080;-73
2023/11/05 00:46:53;;;;;;;0.00;0.00;;;;;;;7.84;100.00;92762.34;1034537;28;20115;-74
2023/11/05 00:47:23;;;;;;;0.00;0.00;;;;;;;7.88;100.00;92770.31;1035482;28;20030;-74
2023/11/05 00:47:54;;;;;;;0.00;0.00;;;;;;;7.87;100.00;92774.03;1034489;28;20022;-73
2023/11/05 00:48:24;;;;;;;0.00;0.00;;;;;;;7.84;100.00;92764.22;1034423;28;20033;-74
2023/11/05 00:48:56;;;;;;;0.00;0.00;;;;;;;7.87;100.00;92774.78;1034517;28;20389;-73
2023/11/05 00:49:26;;;;;;;5.78;0.30;;;;;;;7.85;100.00;92769.13;1038138;28;20021;-73
2023/11/05 00:49:57;;;;;;;0.45;0.17;;;;;;;7.83;100.00;92778.34;1030405;28;20308;-74
2023/11/05 00:50:27;;;;;;;0.00;0.00;;;;;;;7.82;100.00;92779.44;1030070;28;20024;-72
2023/11/05 00:50:58;;;;;;;0.00;0.00;;;;;;;7.79;100.00;92789.44;1030337;28;20018;-74
2023/11/05 00:51:28;;;;;;;0.00;0.00;;;;;;;7.82;100.00;92793.25;1030217;28;20029;-73
2023/11/05 00:51:59;;;;;;;0.00;0.00;;;;;;;7.79;100.00;92789.44;1030365;28;20022;-74
2023/11/05 00:52:29;;;;;;;0.00;0.00;;;;;;;7.78;100.00;92793.13;1027270;28;20025;-73
2023/11/05 00:53:00;;;;;;;0.00;0.00;;;;;;;7.78;100.00;92789.75;1026298;28;20085;-73
2023/11/05 00:53:30;;;;;;;0.00;0.00;;;;;;;7.75;100.00;92787.78;1026282;28;20034;-72
2023/11/05 00:54:01;;;;;;;0.00;0.00;;;;;;;7.67;100.00;92773.69;1028586;28;20019;-76
2023/11/05 00:54:31;;;;;;;0.00;0.00;;;;;;;7.71;100.00;92782.44;1030514;28;20490;-75
2023/11/05 00:55:02;;;;;;;0.00;0.00;;;;;;;7.75;100.00;92783.31;1030353;28;20359;-74
2023/11/05 00:55:34;;;;;;;0.00;0.00;;;;;;;7.71;100.00;92785.03;1026581;28;20027;-73
2023/11/05 00:56:04;;;;;;;0.00;0.00;;;;;;;7.67;100.00;92776.28;1029875;28;20414;-74
2023/11/05 00:56:35;;;;;;;0.00;0.00;;;;;;;7.71;100.00;92776.41;1030359;28;20281;-73
2023/11/05 00:57:05;;;;;;;0.20;0.20;;;;;;;7.64;100.00;92771.69;1030685;28;20022;-73
2023/11/05 00:57:36;;;;;;;0.00;0.00;;;;;;;7.68;100.00;92777.84;1030745;28;20018;-73
2023/11/05 00:58:06;;;;;;;0.00;0.00;;;;;;;7.72;100.00;92785.78;1029966;28;20014;-74
2023/11/05 00:58:37;;;;;;;0.00;0.00;;;;;;;7.69;100.00;92778.59;1026174;28;20134;-75
2023/11/05 00:59:07;;;;;;;0.00;0.00;;;;;;;7.69;100.00;92781.97;1030204;28;20026;-74
2023/11/05 00:59:38;;;;;;;0.00;0.00;;;;;;;7.68;100.00;92782.28;1030190;28;20029;-73
2023/11/05 01:00:09;;;;;;;0.00;0.00;;;;;;;7.59;100.00;92768.53;1038160;28;20029;-74
2023/11/05 01:00:39;;;;;;;0.00;0.00;;;;;;;7.55;100.00;92763.19;1029753;28;20026;-74
2023/11/05 01:01:10;;;;;;;0.00;0.00;;;;;;;7.54;100.00;92770.25;1026317;28;20269;-73
2023/11/05 01:01:40;;;;;;;0.47;0.30;;;;;;;7.60;100.00;92776.03;1031435;28;20054;-75
2023/11/05 01:02:10;;;;;;;0.00;0.00;;;;;;;7.61;100.00;92780.16;1030371;28;20025;-73
2023/11/05 01:02:41;;;;;;;0.00;0.00;;;;;;;7.63;100.00;92769.41;1033283;28;20022;-73
2023/11/05 01:03:13;;;;;;;0.00;0.00;;;;;;;7.65;100.00;92768.03;1030185;28;20026;-72
2023/11/05 01:03:43;;;;;;;0.10;0.10;;;;;;;7.65;100.00;92769.88;1037901;28;20022;-75
2023/11/05 01:04:13;;;;;;;0.00;0.00;;;;;;;7.65;100.00;92762.81;1034304;28;20253;-74
2023/11/05 01:04:44;;;;;;;0.00;0.00;;;;;;;7.63;100.00;92753.78;1030328;28;20033;-73
2023/11/05 01:05:15;;;;;;;0.00;0.00;;;;;;;7.69;100.00;92745.44;1030414;28;20027;-73
2023/11/05 01:05:45;;;;;;;0.00;0.00;;;;;;;7.66;100.00;92740.84;1030562;28;20576;-75
2023/11/05 01:06:15;;;;;;;0.00;0.00;;;;;;;7.66;100.00;92738.25;1030504;28;20081;-73
2023/11/05 01:06:46;;;;;;;0.00;0.00;;;;;;;7.67;100.00;92737.16;1030393;28;20096;-74
2023/11/05 01:07:16;;;;;;;0.00;0.00;;;;;;;7.64;100.00;92731.81;1030467;28;20060;-74
2023/11/05 01:07:47;;;;;;;0.00;0.00;;;;;;;7.58;100.00;92718.19;1030507;28;20026;-74
2023/11/05 01:08:18;;;;;;;0.00;0.00;;;;;;;7.61;100.00;92729.81;1026328;28;20018;-75
2023/11/05 01:08:48;;;;;;;0.20;0.20;;;;;;;7.60;100.00;92721.25;1030528;28;20026;-72
2023/11/05 01:09:19;;;;;;;0.05;0.05;;;;;;;7.54;100.00;92722.50;1030620;28;20015;-73
2023/11/05 01:09:49;;;;;;;0.00;0.00;;;;;;;7.61;100.00;92727.97;1030356;28;20058;-73
2023/11/05 01:10:20;;;;;;;0.00;0.00;;;;;;;7.59;100.00;92724.94;1025602;28;20023;-73
2023/11/05 01:10:50;;;;;;;0.00;0.00;;;;;;;7.60;100.00;92729.06;1026566;28;20105;-73
2023/11/05 01:11:21;;;;;;;0.00;0.00;;;;;;;7.58;100.00;92726.03;1026763;28;20921;-72
2023/11/05 01:11:52;;;;;;;0.60;0.15;;;;;;;7.53;100.00;92713.91;1034473;28;20022;-73
2023/11/05 01:12:22;;;;;;;0.00;0.00;;;;;;;7.53;100.00;92724.34;1034779;28;20685;-72
2023/11/05 01:12:53;;;;;;;0.00;0.00;;;;;;;7.54;100.00;92725.91;1034521;28;20022;-75
2023/11/05 01:13:24;;;;;;;0.00;0.00;;;;;;;7.56;100.00;92733.41;1038923;28;20029;-75
2023/11/05 01:13:54;;;;;;;0.10;0.10;;;;;;;7.54;100.00;92725.09;1034616;28;20030;-73
2023/11/05 01:14:26;;;;;;;0.00;0.00;;;;;;;7.57;100.00;92727.09;1035079;28;20699;-72
2023/11/05 01:14:56;;;;;;;0.00;0.00;;;;;;;7.60;100.00;92716.03;1030194;28;20026;-73
2023/11/05 01:15:27;;;;;;;0.45;0.30;;;;;;;7.51;100.00;92704.88;1027568;28;20689;-74
2023/11/05 01:15:57;;;;;;;0.00;0.00;;;;;;;7.63;100.00;92723.22;1034419;28;20033;-74
2023/11/05 01:16:27;;;;;;;0.00;0.00;;;;;;;7.63;100.00;92714.63;1030265;28;20018;-74
2023/11/05 01:16:58;;;;;;;0.00;0.00;;;;;;;7.64;100.00;92724.72;1034118;28;20033;-75
2023/11/05 01:17:28;;;;;;;0.00;0.00;;;;;;;7.64;100.00;92729.19;1029016;28;20114;-74
2023/11/05 01:17:59;;;;;;;0.00;0.00;;;;;;;7.63;100.00;92723.22;1031245;28;20026;-74
2023/11/05 01:18:29;;;;;;;0.00;0.00;;;;;;;7.65;100.00;92723.66;1029019;28;20041;-74
2023/11/05 01:19:00;;;;;;;0.00;0.00;;;;;;;7.68;100.00;92730.06;1022139;29;20557;-74
2023/11/05 01:19:30;;;;;;;0.00;0.00;;;;;;;7.69;100.00;92726.41;1024004;28;20034;-74
2023/11/05 01:20:01;;;;;;;0.00;0.00;;;;;;;7.71;100.00;92726.84;1034481;28;20026;-74
2023/11/05 01:20:31;;;;;;;0.00;0.00;;;;;;;7.71;100.00;92724.22;1029943;28;20748;-74
2023/11/05 01:21:02;;;;;;;0.00;0.00;;;;;;;7.72;100.00;92725.78;1032078;28;20030;-75
2023/11/05 01:21:32;;;;;;;0.00;0.00;;;;;;;7.77;100.00;92726.31;1030253;28;20025;-75
2023/11/05 01:22:03;;;;;;;0.20;0.20;;;;;;;7.75;100.00;92728.50;1026286;28;20027;-73
2023/11/05 01:22:33;;;;;;;0.25;0.25;;;;;;;7.80;100.00;92717.09;1025515;28;20023;-74
2023/11/05 01:23:04;;;;;;;0.00;0.00;;;;;;;7.71;100.00;92714.56;1026001;28;20019;-74
2023/11/05 01:23:34;;;;;;;0.00;0.00;;;;;;;7.86;100.00;92722.91;1027478;28;20046;-74
2023/11/05 01:24:05;;;;;;;0.00;0.00;;;;;;;7.89;100.00;92717.03;1034348;28;20585;-72
2023/11/05 01:24:36;;;;;;;0.00;0.00;;;;;;;7.88;100.00;92703.22;1034647;28;20024;-73
2023/11/05 01:25:06;;;;;;;0.20;0.10;;;;;;;7.92;100.00;92711.19;1030267;28;20261;-75
2023/11/05 01:25:37;;;;;;;0.00;0.00;;;;;;;8.06;100.00;92710.91;1037871;28;20013;-74
2023/11/05 01:26:07;;;;;;;0.00;0.00;;;;;;;8.00;100.00;92697.28;1030193;28;20026;-76
2023/11/05 01:26:38;;;;;;;0.00;0.00;;;;;;;8.03;100.00;92694.03;1030668;28;20533;-74
2023/11/05 01:27:08;;;;;;;0.00;0.00;;;;;;;8.08;100.00;92706.91;1034904;28;20438;-74
2023/11/05 01:27:39;;;;;;;0.00;0.00;;;;;;;8.00;100.00;92699.91;1041426;28;20036;-74
2023/11/05 01:28:09;;;;;;;0.00;0.00;;;;;;;8.09;100.00;92702.44;1034347;28;20030;-73
2023/11/05 01:28:40;;;;;;;0.00;0.00;;;;;;;7.97;100.00;92679.66;1023461;28;20016;-73
2023/11/05 01:29:10;;;;;;;0.00;0.00;;;;;;;8.12;100.00;92710.41;1026931;28;20023;-74
2023/11/05 01:29:41;;;;;;;0.00;0.00;;;;;;;8.13;100.00;92711.91;1030741;28;20231;-74
2023/11/05 01:30:12;;;;;;;0.00;0.00;;;;;;;8.08;100.00;92709.50;1038462;28;20052;-73
2023/11/05 01:30:42;;;;;;;0.00;0.00;;;;;;;8.08;100.00;92717.34;1032969;28;20389;-74
2023/11/05 01:31:12;;;;;;;0.00;0.00;;;;;;;8.07;100.00;92723.63;1023851;28;20026;-74
2023/11/05 01:31:43;;;;;;;0.00;0.00;;;;;;;8.06;100.00;92713.53;1030315;28;20053;-74
2023/11/05 01:32:13;;;;;;;0.00;0.00;;;;;;;8.06;100.00;92714.28;1030468;28;20114;-74
2023/11/05 01:32:44;;;;;;;0.00;0.00;;;;;;;8.10;100.00;92720.38;1030091;28;20473;-74
2023/11/05 01:33:14;;;;;;;0.00;0.00;;;;;;;8.10;100.00;92720.38;1026092;28;20088;-73
2023/11/05 01:33:45;;;;;;;0.00;0.00;;;;;;;8.11;100.00;92716.69;1027123;28;20655;-75
2023/11/05 01:34:15;;;;;;;0.00;0.00;;;;;;;8.10;100.00;92728.22;1026433;28;20019;-75
2023/11/05 01:34:46;;;;;;;0.00;0.00;;;;;;;8.10;100.00;92717.78;1028271;28;20411;-72
2023/11/05 01:35:16;;;;;;;0.00;0.00;;;;;;;8.14;100.00;92736.94;1030342;28;20465;-76
2023/11/05 01:35:47;;;;;;;0.00;0.00;;;;;;;8.12;100.00;92726.06;1038301;28;20048;-75
2023/11/05 01:36:17;;;;;;;0.00;0.00;;;;;;;8.04;100.00;92719.06;1038533;28;20026;-75
2023/11/05 01:36:48;;;;;;;0.00;0.00;;;;;;;8.08;100.00;92721.78;1030266;28;20407;-75
2023/11/05 01:37:18;;;;;;;0.00;0.00;;;;;;;8.11;100.00;92727.13;1032575;28;20061;-74
2023/11/05 01:37:49;;;;;;;0.00;0.00;;;;;;;8.09;100.00;92731.94;1037420;28;20021;-74
2023/11/05 01:38:19;;;;;;;0.00;0.00;;;;;;;8.05;100.00;92728.44;1030557;28;20019;-72
2023/11/05 01:38:50;;;;;;;0.00;0.00;;;;;;;8.01;100.00;92724.91;1030138;28;20069;-73
2023/11/05 01:39:20;;;;;;;0.00;0.00;;;;;;;8.03;100.00;92730.59;1018677;28;20063;-75
2023/11/05 01:39:50;;;;;;;0.00;0.00;;;;;;;7.99;100.00;92735.69;1030090;28;20015;-74
2023/11/05 01:40:21;;;;;;;0.00;0.00;;;;;;;7.97;100.00;92727.41;1029867;28;20014;-72
2023/11/05 01:40:52;;;;;;;0.28;0.28;;;;;;;7.96;100.00;92725.13;1030072;28;20015;-73
2023/11/05 01:41:23;;;;;;;0.00;0.00;;;;;;;7.88;100.00;92707.66;1034289;28;20116;-73
2023/11/05 01:41:54;;;;;;;0.00;0.00;;;;;;;8.02;100.00;92729.06;1030046;28;20550;-72
2023/11/05 01:42:24;;;;;;;0.00;0.00;;;;;;;8.02;100.00;92731.69;1030552;28;20262;-72
2023/11/05 01:42:58;;;;;;;0.15;0.15;;;;;;;7.99;100.00;92735.69;1034980;28;20422;-73
2023/11/05 01:43:29;;;;;;;0.00;0.00;;;;;;;7.98;100.00;92728.16;1034156;28;20586;-75
2023/11/05 01:43:59;;;;;;;0.00;0.00;;;;;;;7.95;100.00;92726.22;1037290;28;20268;-74
2023/11/05 01:44:30;;;;;;;0.00;0.00;;;;;;;7.87;100.00;92727.03;1039076;28;20598;-74
2023/11/05 01:45:00;;;;;;;0.00;0.00;;;;;;;7.92;100.00;92739.91;1038270;28;20051;-75
2023/11/05 01:45:31;;;;;;;0.00;0.00;;;;;;;7.88;100.00;92739.00;1034204;28;20017;-74
2023/11/05 01:46:02;;;;;;;0.00;0.00;;;;;;;7.85;100.00;92735.19;1032088;28;20571;-74
2023/11/05 01:46:32;;;;;;;0.00;0.00;;;;;;;7.83;100.00;92729.50;1025996;28;20031;-74
2023/11/05 01:47:03;;;;;;;0.00;0.00;;;;;;;7.76;100.00;92724.81;1030428;28;20038;-75
2023/11/05 01:47:33;;;;;;;0.00;0.00;;;;;;;7.77;100.00;92731.53;1034755;28;20054;-74
2023/11/05 01:48:04;;;;;;;0.00;0.00;;;;;;;7.77;100.00;92736.75;1026364;28;20352;-75
2023/11/05 01:48:34;;;;;;;0.00;0.00;;;;;;;7.75;100.00;92736.34;1022272;29;20118;-75
2023/11/05 01:49:05;;;;;;;0.00;0.00;;;;;;;7.73;100.00;92735.13;1024385;28;20015;-75
2023/11/05 01:49:35;;;;;;;0.00;0.00;;;;;;;7.73;100.00;92743.72;1029387;28;20015;-74
2023/11/05 01:50:06;;;;;;;0.00;0.00;;;;;;;7.70;100.00;92738.38;1029969;28;20022;-73
2023/11/05 01:50:36;;;;;;;0.00;0.00;;;;;;;7.64;100.00;92729.19;1025612;28;20015;-72
2023/11/05 01:51:12;;;;;;;0.00;0.00;;;;;;;7.66;100.00;92742.69;1025759;28;20023;-74
2023/11/05 01:51:42;;;;;;;0.00;0.00;;;;;;;7.56;100.00;92730.78;1025938;28;20526;-75
2023/11/05 01:52:13;;;;;;;0.00;0.00;;;;;;;7.51;100.00;92729.13;1026611;28;20262;-73
2023/11/05 01:52:43;;;;;;;0.00;0.00;;;;;;;7.55;100.00;92737.09;1029134;28;20398;-73
2023/11/05 01:53:14;;;;;;;0.00;0.00;;;;;;;7.46;100.00;92724.09;1022189;29;20007;-74
2023/11/05 01:53:46;;;;;;;0.00;0.00;;;;;;;7.47;100.00;92730.06;1025226;28;20037;-75
2023/11/05 01:54:16;;;;;;;0.00;0.00;;;;;;;7.44;100.00;92722.88;1031063;28;20390;-73
2023/11/05 01:54:47;;;;;;;0.00;0.00;;;;;;;7.43;100.00;92722.13;1029742;28;20258;-75
2023/11/05 01:55:17;;;;;;;0.10;0.10;;;;;;;7.46;100.00;92726.69;1030162;28;20022;-72
2023/11/05 01:55:47;;;;;;;0.00;0.00;;;;;;;7.40;100.00;92724.59;1030827;28;20792;-74
2023/11/05 01:56:19;;;;;;;0.00;0.00;;;;;;;7.40;100.00;92724.59;1031508;28;20084;-73
2023/11/05 01:56:49;;;;;;;0.00;0.00;;;;;;;7.33;100.00;92725.84;1026049;28;20015;-74
2023/11/05 01:57:20;;;;;;;0.00;0.00;;;;;;;7.26;100.00;92725.59;1034171;28;20272;-73
2023/11/05 01:57:52;;;;;;;0.00;0.00;;;;;;;7.24;100.00;92717.34;1029281;28;20408;-73
2023/11/05 01:58:22;;;;;;;0.00;0.00;;;;;;;7.27;100.00;92726.34;1029961;28;20023;-73
2023/11/05 01:58:53;;;;;;;0.00;0.00;;;;;;;7.22;100.00;92724.69;1026256;28;20260;-74
2023/11/05 01:59:23;;;;;;;0.00;0.00;;;;;;;7.23;100.00;92728.81;1030046;28;20123;-73
2023/11/05 01:59:53;;;;;;;0.00;0.00;;;;;;;7.04;100.00;92707.59;1022273;28;20436;-73
2023/11/05 02:00:24;;;;;;;0.40;0.40;;;;;;;7.13;100.00;92726.59;1029642;28;20014;-73
2023/11/05 02:00:54;;;;;;;0.10;0.10;;;;;;;7.03;100.00;92722.50;1026413;28;20037;-72
2023/11/05 02:01:26;;;;;;;0.00;0.00;;;;;;;7.02;100.00;92722.81;1033131;28;20014;-74
2023/11/05 02:01:57;;;;;;;0.00;0.00;;;;;;;7.03;100.00;92737.38;1030332;28;20066;-73
2023/11/05 02:02:28;;;;;;;0.00;0.00;;;;;;;7.04;100.00;92738.88;1034027;28;20348;-74
2023/11/05 02:02:58;;;;;;;0.25;0.25;;;;;;;7.01;100.00;92734.31;1030324;28;20081;-74
2023/11/05 02:03:28;;;;;;;0.00;0.00;;;;;;;6.96;100.00;92744.91;1033972;28;20409;-73
2023/11/05 02:03:59;;;;;;;0.00;0.00;;;;;;;6.98;100.00;92740.16;1030254;28;20018;-74
2023/11/05 02:04:29;;;;;;;0.00;0.00;;;;;;;6.94;100.00;92739.25;1030361;28;20023;-75
2023/11/05 02:05:00;;;;;;;0.00;0.00;;;;;;;6.89;100.00;92736.81;1036485;28;20014;-72
2023/11/05 02:05:31;;;;;;;0.00;0.00;;;;;;;6.84;100.00;92738.53;1038313;28;20021;-75
2023/11/05 02:06:02;;;;;;;0.00;0.00;;;;;;;6.77;100.00;92724.44;1034191;28;20080;-73
2023/11/05 02:06:32;;;;;;;0.00;0.00;;;;;;;6.81;100.00;92728.72;1030282;28;20273;-74
2023/11/05 02:07:03;;;;;;;0.00;0.00;;;;;;;6.76;100.00;92726.28;1026136;28;20681;-74
2023/11/05 02:07:33;;;;;;;0.00;0.00;;;;;;;6.76;100.00;92723.69;1034222;28;20022;-73
2023/11/05 02:08:04;;;;;;;0.00;0.00;;;;;;;6.72;100.00;92727.22;1038305;28;20022;-76
2023/11/05 02:08:34;;;;;;;0.00;0.00;;;;;;;6.69;100.00;92718.19;1034018;28;20041;-74
2023/11/05 02:09:06;;;;;;;0.00;0.00;;;;;;;6.74;100.00;92736.28;1030021;28;20724;-73
2023/11/05 02:09:36;;;;;;;0.03;0.03;;;;;;;6.68;100.00;92729.69;1028510;28;20033;-74
2023/11/05 02:10:07;;;;;;;0.28;0.28;;;;;;;6.70;100.00;92737.94;1029819;28;20261;-74
2023/11/05 02:10:37;;;;;;;0.00;0.00;;;;;;;6.66;100.00;92734.44;1029727;28;20014;-73
2023/11/05 02:11:11;;;;;;;0.70;0.57;;;;;;;6.66;100.00;92736.28;1029983;28;20301;-75
2023/11/05 02:11:41;;;;;;;0.00;0.00;;;;;;;6.56;100.00;92722.53;1030099;28;20422;-73
2023/11/05 02:12:12;;;;;;;0.00;0.00;;;;;;;6.54;100.00;92727.28;1030174;28;20269;-74
2023/11/05 02:12:58;;;;;;;0.00;0.00;;;;;;;6.44;100.00;92706.78;1030149;28;20022;-74
2023/11/05 02:13:42;;;;;;;0.00;0.00;;;;;;;6.59;100.00;92723.75;1029809;28;20418;-74
2023/11/05 02:14:15;;;;;;;0.00;0.00;;;;;;;6.56;100.00;92721.75;1030261;28;20336;-76
2023/11/05 02:14:54;;;;;;;0.00;0.00;;;;;;;6.59;100.00;92745.34;1030204;28;20734;-75
2023/11/05 02:15:24;;;;;;;0.00;0.00;;;;;;;6.58;100.00;92728.19;1029836;28;20351;-73
2023/11/05 02:15:55;;;;;;;0.00;0.00;;;;;;;6.59;100.00;92739.38;1030146;28;20982;-72
2023/11/05 02:16:31;;;;;;;0.00;0.00;;;;;;;6.51;100.00;92732.34;1030320;28;20030;-73
2023/11/05 02:17:01;;;;;;;0.00;0.00;;;;;;;6.49;100.00;92729.28;1034738;28;20612;-75
2023/11/05 02:17:32;;;;;;;0.00;0.00;;;;;;;6.54;100.00;92736.94;1030962;28;20254;-74
2023/11/05 02:18:02;;;;;;;0.00;0.00;;;;;;;6.53;100.00;92740.63;1035163;28;20792;-74
2023/11/05 02:18:33;;;;;;;0.00;0.00;;;;;;;6.44;100.00;92732.84;1034182;28;20060;-73
2023/11/05 02:19:03;;;;;;;0.00;0.00;;;;;;;6.50;100.00;92736.78;1034485;28;20022;-74
2023/11/05 02:19:34;;;;;;;0.00;0.00;;;;;;;6.42;100.00;92734.22;1038234;28;20100;-75
2023/11/05 02:20:06;;;;;;;0.00;0.00;;;;;;;6.36;100.00;92725.78;1030155;28;20018;-72
2023/11/05 02:20:37;;;;;;;0.00;0.00;;;;;;;6.44;100.00;92732.06;1025926;28;20019;-72
2023/11/05 02:21:07;;;;;;;0.03;0.03;;;;;;;6.41;100.00;92730.09;1038099;28;20268;-75
2023/11/05 02:21:44;;;;;;;0.00;0.00;;;;;;;6.43;100.00;92725.31;1026138;28;20015;-75
2023/11/05 02:22:15;;;;;;;0.00;0.00;;;;;;;6.35;100.00;92725.03;1025892;28;20023;-75
2023/11/05 02:22:46;;;;;;;0.10;0.10;;;;;;;6.35;100.00;92725.03;1033730;28;20327;-71
2023/11/05 02:23:17;;;;;;;0.00;0.00;;;;;;;6.35;100.00;92730.25;1031371;28;20397;-74
2023/11/05 02:23:48;;;;;;;0.00;0.00;;;;;;;6.29;100.00;92728.09;1030791;28;20892;-74
2023/11/05 02:24:19;;;;;;;0.00;0.00;;;;;;;6.38;100.00;92734.06;1031113;28;20078;-73
2023/11/05 02:24:49;;;;;;;0.00;0.00;;;;;;;6.35;100.00;92727.63;1026511;28;20083;-73
2023/11/05 02:25:20;;;;;;;0.00;0.00;;;;;;;6.27;100.00;92718.03;1026427;28;20288;-74